createdAt,value
2018-12-16T00:01:46.830Z,100542.80
2018-12-16T00:06:42.849Z,100563.71
2018-12-16T00:11:38.880Z,100563.45
2018-12-16T00:16:34.983Z,100571.20
2018-12-16T00:21:31.133Z,100557.09
2018-12-16T00:26:32.026Z,100544.86
2018-12-16T00:31:28.052Z,100527.04
2018-12-16T00:36:24.068Z,100525.84
2018-12-16T00:41:20.129Z,100503.80
2018-12-16T00:46:16.274Z,100501.22
2018-12-16T00:51:12.285Z,100496.31
2018-12-16T00:56:08.321Z,100512.25
2018-12-16T01:01:04.443Z,100504.59
2018-12-16T01:06:00.458Z,100496.33
2018-12-16T01:10:56.599Z,100491.12
2018-12-16T01:15:52.615Z,100501.58
2018-12-16T01:20:48.675Z,100514.33
2018-12-16T01:25:44.789Z,100506.84
2018-12-16T01:30:40.793Z,100517.53
2018-12-16T01:35:36.809Z,100507.23
2018-12-16T01:40:32.849Z,100500.19
2018-12-16T01:45:28.849Z,100490.93
2018-12-16T01:50:24.865Z,100487.29
2018-12-16T01:55:20.932Z,100488.17
2018-12-16T02:00:16.964Z,100486.34
2018-12-16T02:05:12.997Z,100488.58
2018-12-16T02:10:09.247Z,100476.54
2018-12-16T02:15:05.373Z,100455.78
2018-12-16T02:20:02.321Z,100446.20
2018-12-16T02:24:58.394Z,100447.58
2018-12-16T02:29:54.401Z,100427.25
2018-12-16T02:34:50.419Z,100429.17
2018-12-16T02:39:46.437Z,100424.72
2018-12-16T02:44:42.461Z,100411.61
2018-12-16T02:49:38.479Z,100380.07
2018-12-16T02:54:34.526Z,100384.83
2018-12-16T02:59:30.826Z,100370.02
2018-12-16T03:04:27.164Z,100348.16
2018-12-16T03:09:23.189Z,100339.19
2018-12-16T03:14:19.193Z,100351.66
2018-12-16T03:19:15.254Z,100349.00
2018-12-16T03:24:11.274Z,100329.48
2018-12-16T03:29:07.284Z,100314.04
2018-12-16T03:34:03.311Z,100299.34
2018-12-16T03:38:59.420Z,100301.92
2018-12-16T03:43:55.440Z,100289.62
2018-12-16T03:48:51.472Z,100285.33
2018-12-16T03:53:47.490Z,100276.77
2018-12-16T03:58:55.970Z,100266.44
2018-12-16T04:03:52.013Z,100253.51
2018-12-16T04:08:48.026Z,100248.62
2018-12-16T04:13:44.031Z,100234.61
2018-12-16T04:18:40.049Z,100222.91
2018-12-16T04:23:36.065Z,100219.48
2018-12-16T04:28:32.956Z,100206.69
2018-12-16T04:33:28.966Z,100190.70
2018-12-16T04:38:24.994Z,100200.45
2018-12-16T04:43:21.025Z,100189.29
2018-12-16T04:48:17.078Z,100195.83
2018-12-16T04:53:13.162Z,100173.77
2018-12-16T04:58:10.014Z,100174.44
2018-12-16T05:03:06.036Z,100172.80
2018-12-16T05:08:02.233Z,100165.80
2018-12-16T05:12:58.268Z,100170.21
2018-12-16T05:17:54.281Z,100172.80
2018-12-16T05:22:50.309Z,100166.34
2018-12-16T05:27:48.336Z,100163.15
2018-12-16T05:32:44.442Z,100167.09
2018-12-16T05:37:40.457Z,100158.38
2018-12-16T05:42:36.464Z,100164.62
2018-12-16T05:47:32.475Z,100164.62
2018-12-16T05:52:28.487Z,100157.98
2018-12-16T05:57:25.870Z,100157.92
2018-12-16T06:02:21.904Z,100159.37
2018-12-16T06:07:17.915Z,100156.25
2018-12-16T06:12:14.073Z,100152.36
2018-12-16T06:17:10.057Z,100145.16
2018-12-16T06:22:06.062Z,100144.36
2018-12-16T06:27:02.080Z,100142.38
2018-12-16T06:31:58.094Z,100142.43
2018-12-16T06:36:54.185Z,100133.67
2018-12-16T06:41:50.226Z,100139.84
2018-12-16T06:46:46.248Z,100126.25
2018-12-16T06:51:42.266Z,100128.05
2018-12-16T06:56:38.273Z,100123.66
2018-12-16T07:01:34.398Z,100130.33
2018-12-16T07:06:30.444Z,100133.27
2018-12-16T07:11:26.498Z,100141.56
2018-12-16T07:16:22.564Z,100141.31
2018-12-16T07:21:18.605Z,100134.25
2018-12-16T07:26:14.653Z,100141.17
2018-12-16T07:31:10.725Z,100147.25
2018-12-16T07:36:06.810Z,100147.28
2018-12-16T07:41:03.011Z,100150.80
2018-12-16T07:45:59.075Z,100155.39
2018-12-16T07:50:55.193Z,100147.69
2018-12-16T07:55:51.271Z,100144.09
2018-12-16T08:00:47.479Z,100143.22
2018-12-16T08:05:43.531Z,100140.71
2018-12-16T08:10:39.691Z,100147.97
2018-12-16T08:15:35.745Z,100156.59
2018-12-16T08:20:31.783Z,100146.33
2018-12-16T08:25:27.861Z,100148.80
2018-12-16T08:30:24.129Z,100146.34
2018-12-16T08:35:20.387Z,100144.84
2018-12-16T08:40:16.491Z,100143.45
2018-12-16T08:45:12.518Z,100144.81
2018-12-16T08:50:08.580Z,100148.87
2018-12-16T08:55:04.641Z,100147.69
2018-12-16T09:00:00.725Z,100154.46
2018-12-16T09:04:56.795Z,100153.11
2018-12-16T09:09:52.877Z,100157.47
2018-12-16T09:14:48.926Z,100156.94
2018-12-16T09:19:44.982Z,100161.81
2018-12-16T09:24:41.025Z,100152.85
2018-12-16T09:29:37.053Z,100157.42
2018-12-16T09:34:33.106Z,100160.55
2018-12-16T09:39:29.193Z,100156.73
2018-12-16T09:44:25.273Z,100151.59
2018-12-16T09:49:21.309Z,100152.56
2018-12-16T09:54:17.381Z,100152.80
2018-12-16T09:59:14.074Z,100150.68
2018-12-16T10:04:10.721Z,100140.89
2018-12-16T10:09:06.976Z,100138.83
2018-12-16T10:19:25.967Z,100130.11
2018-12-16T10:24:23.198Z,100120.33
2018-12-16T10:29:19.317Z,100119.24
2018-12-16T10:34:15.350Z,100121.98
2018-12-16T10:39:11.495Z,100118.34
2018-12-16T10:44:07.542Z,100113.39
2018-12-16T10:49:05.002Z,100108.22
2018-12-16T10:54:01.293Z,100107.91
2018-12-16T10:58:57.304Z,100103.05
2018-12-16T11:03:53.326Z,100100.16
2018-12-16T11:08:49.684Z,100103.34
2018-12-16T11:13:45.703Z,100093.48
2018-12-16T11:18:41.733Z,100083.77
2018-12-16T11:23:37.799Z,100083.86
2018-12-16T11:28:34.503Z,100083.09
2018-12-16T11:33:30.761Z,100086.56
2018-12-16T11:43:54.335Z,100083.30
2018-12-16T11:48:50.579Z,100085.08
2018-12-16T11:53:46.803Z,100081.87
2018-12-16T11:58:43.707Z,100069.53
2018-12-16T12:03:39.827Z,100068.11
2018-12-16T12:08:36.135Z,100067.43
2018-12-16T12:13:32.360Z,100070.78
2018-12-16T12:18:28.600Z,100065.01
2018-12-16T12:23:24.850Z,100073.59
2018-12-16T12:28:21.834Z,100069.23
2018-12-16T12:33:18.215Z,100066.97
2018-12-16T12:38:14.404Z,100064.48
2018-12-16T12:43:10.769Z,100059.23
2018-12-16T12:48:07.033Z,100062.64
2018-12-16T12:53:03.976Z,100062.53
2018-12-16T12:58:02.150Z,100059.05
2018-12-16T13:02:58.446Z,100062.72
2018-12-16T13:07:54.587Z,100051.55
2018-12-16T13:12:50.748Z,100045.85
2018-12-16T13:17:47.007Z,100050.36
2018-12-16T13:22:43.122Z,100050.87
2018-12-16T13:27:39.277Z,100052.30
2018-12-16T13:32:35.373Z,100053.94
2018-12-16T13:37:31.531Z,100049.40
2018-12-16T13:42:28.083Z,100048.38
2018-12-16T13:47:24.253Z,100053.15
2018-12-16T13:52:20.333Z,100051.83
2018-12-16T13:57:16.526Z,100049.45
2018-12-16T14:02:12.593Z,100048.17
2018-12-16T14:07:08.678Z,100060.28
2018-12-16T14:12:04.873Z,100069.31
2018-12-16T14:17:00.983Z,100068.29
2018-12-16T14:21:57.197Z,100068.29
2018-12-16T14:26:53.356Z,100075.83
2018-12-16T14:31:49.430Z,100081.31
2018-12-16T14:36:45.517Z,100069.89
2018-12-16T14:41:41.764Z,100080.16
2018-12-16T14:46:38.885Z,100089.42
2018-12-16T14:51:34.951Z,100104.32
2018-12-16T14:56:31.035Z,100101.76
2018-12-16T15:01:27.189Z,100095.14
2018-12-16T15:06:23.298Z,100098.03
2018-12-16T15:11:19.375Z,100093.23
2018-12-16T15:16:15.469Z,100095.02
2018-12-16T15:21:11.550Z,100098.33
2018-12-16T15:26:07.746Z,100108.73
2018-12-16T15:31:03.838Z,100103.77
2018-12-16T15:36:00.050Z,100102.99
2018-12-16T15:40:56.298Z,100107.62
2018-12-16T15:45:52.385Z,100123.88
2018-12-16T15:50:48.429Z,100135.48
2018-12-16T15:55:44.474Z,100117.79
2018-12-16T16:00:40.514Z,100123.84
2018-12-16T16:05:36.625Z,100134.36
2018-12-16T16:10:32.793Z,100130.22
2018-12-16T16:15:28.836Z,100132.03
2018-12-16T16:20:24.897Z,100144.04
2018-12-16T16:25:27.985Z,100145.09
2018-12-16T16:30:24.036Z,100138.46
2018-12-16T16:35:20.137Z,100134.45
2018-12-16T16:40:16.528Z,100136.47
2018-12-16T16:45:12.601Z,100136.39
2018-12-16T16:50:08.663Z,100143.47
2018-12-16T16:55:04.933Z,100138.33
2018-12-16T17:00:00.973Z,100147.06
2018-12-16T17:04:57.107Z,100154.78
2018-12-16T17:09:53.255Z,100164.42
2018-12-16T17:14:49.395Z,100170.02
2018-12-16T17:19:45.533Z,100173.83
2018-12-16T17:24:41.665Z,100185.05
2018-12-16T17:29:38.397Z,100187.14
2018-12-16T17:34:34.488Z,100191.86
2018-12-16T17:39:32.521Z,100193.63
2018-12-16T17:44:28.583Z,100194.46
2018-12-16T17:49:25.778Z,100188.33
2018-12-16T17:54:21.834Z,100202.07
2018-12-16T17:59:18.491Z,100186.92
2018-12-16T18:04:16.714Z,100186.88
2018-12-16T18:09:14.645Z,100188.91
2018-12-16T18:14:11.285Z,100196.14
2018-12-16T18:19:07.465Z,100200.02
2018-12-16T18:24:05.458Z,100209.13
2018-12-16T18:29:01.693Z,100200.86
2018-12-16T18:33:58.285Z,100207.64
2018-12-16T18:38:54.410Z,100209.86
2018-12-16T18:43:50.489Z,100207.08
2018-12-16T18:48:46.528Z,100211.66
2018-12-16T18:53:42.562Z,100218.67
2018-12-16T18:58:38.608Z,100228.13
2018-12-16T19:03:34.894Z,100231.97
2018-12-16T19:08:31.050Z,100243.94
2018-12-16T19:13:27.088Z,100239.45
2018-12-16T19:18:24.945Z,100256.48
2018-12-16T19:23:21.135Z,100252.41
2018-12-16T19:28:17.888Z,100249.94
2018-12-16T19:33:13.993Z,100248.98
2018-12-16T19:38:10.033Z,100250.27
2018-12-16T19:43:06.087Z,100246.12
2018-12-16T19:48:02.135Z,100252.30
2018-12-16T19:52:58.176Z,100254.20
2018-12-16T19:57:56.894Z,100253.37
2018-12-16T20:02:53.002Z,100259.47
2018-12-16T20:07:49.296Z,100275.94
2018-12-16T20:12:45.343Z,100274.42
2018-12-16T20:17:41.403Z,100283.87
2018-12-16T20:22:37.515Z,100298.31
2018-12-16T20:27:33.646Z,100299.73
2018-12-16T20:32:29.708Z,100311.89
2018-12-16T20:37:25.750Z,100313.20
2018-12-16T20:42:21.831Z,100314.48
2018-12-16T20:47:17.932Z,100313.00
2018-12-16T20:52:14.093Z,100315.83
2018-12-16T20:57:10.150Z,100315.41
2018-12-16T21:02:06.286Z,100331.17
2018-12-16T21:07:02.439Z,100332.53
2018-12-16T21:11:59.873Z,100334.14
2018-12-16T21:17:01.932Z,100330.64
2018-12-16T21:21:57.999Z,100335.83
2018-12-16T21:26:54.058Z,100336.92
2018-12-16T21:31:50.106Z,100335.59
2018-12-16T21:36:46.177Z,100338.98
2018-12-16T21:41:42.258Z,100344.69
2018-12-16T21:46:38.307Z,100353.94
2018-12-16T21:51:34.377Z,100354.67
2018-12-16T21:56:30.864Z,100363.97
2018-12-16T22:01:26.966Z,100373.00
2018-12-16T22:06:23.019Z,100374.85
2018-12-16T22:11:19.067Z,100374.90
2018-12-16T22:16:15.225Z,100390.31
2018-12-16T22:21:11.261Z,100383.83
2018-12-16T22:26:07.297Z,100392.16
2018-12-16T22:31:03.339Z,100398.58
2018-12-16T22:35:59.370Z,100408.80
2018-12-16T22:40:55.475Z,100405.52
2018-12-16T22:45:52.583Z,100402.59
2018-12-16T22:50:48.622Z,100408.52
2018-12-16T22:55:44.662Z,100401.08
2018-12-16T23:06:14.470Z,100400.13
2018-12-16T23:11:10.487Z,100395.73
2018-12-16T23:16:06.625Z,100399.43
2018-12-16T23:21:05.119Z,100397.41
2018-12-16T23:26:01.134Z,100395.48
2018-12-16T23:30:57.270Z,100407.14
2018-12-16T23:35:53.266Z,100406.80
2018-12-16T23:40:49.289Z,100399.93
2018-12-16T23:45:45.301Z,100404.62
2018-12-16T23:50:41.317Z,100408.49
2018-12-16T23:55:37.344Z,100405.39
